Saint Joseph, MO

9:38 AM CST on January 22, 2017 (GMT -0600)
KMOSTJOS3 | | Change Station

Elev 965 ft 39.77 °N, 94.82 °W | Updated 55 seconds ago

Mostly Cloudy
Mostly Cloudy
34.9 °F
Feels Like 32 °F
N
3.6
Wind Variable Wind from NNE
Gusts 3.6 mph

Today
High -- | Low -- °F
--% Chance of Precip.
Yesterday
High -- | Low -- °F
Precip. -- in
Pressure 29.72 in
Visibility 7.0 miles
Clouds Mostly Cloudy 900 ft
Windchill 32 °F
Dew Point 27 °F
Humidity 73%
Rainfall 0.00 in
Snow Depth Not available.
7:34 AM 5:27 PM
Waning Crescent, 25% visible
SPECI KSTJ 221527Z 35015KT 7SM BKN009 01/01 A2972 RMK AO2 T00110006 $
Pressure 29.72 in
Visibility 7.0 miles
Clouds Mostly Cloudy 900 ft
Windchill 32 °F
Dew Point 27 °F
Humidity 73%
Rainfall 0.00 in
Snow Depth Not available.
7:34 AM 5:27 PM
Waning Crescent, 25% visible
SPECI KSTJ 221527Z 35015KT 7SM BKN009 01/01 A2972 RMK AO2 T00110006 $

Get Your Daily Forecast Email!

Thanks for signing up!

Be on the lookout for a verification email in your inbox.

You'll start receiving the daily forecast at 8 AM.

×

10-Day Weather Forecast

Almanac

Astronomy

Jan. 22, 2017 Rise Set
Actual Time
Civil Twilight
Nautical Twilight
Astronomical Twilight
Moon
Length of Visible Light
Length of Day
Tomorrow will be .
, % of the Moon is Illuminated

Today's Extremes

State Highs State Lows

Community

WunderPhotos

Upload Photos

1,962,540 photos uploaded!

WunderBlog® & News

Nearby

Air Quality

  Air Quality AQ Index Pollutant
Not available.

Snow Depth

Station Depth Elevation

Earthquake Activity

City Distance Mag. Time & Date
Minimum magnitude displayed is 2.5.

Coastal Water Temperatures

Place Temperature

Stations

Nearby Weather Stations

Station Location Temp. Windchill Dew Point Humidity Wind Precip. Elev Updated Type
                   

Watches & Warnings

There are currently no watches in effect.